Parcialmente nublado (3-4 oitavos)
http://www.flightutilities.com

QR Code
SBPL 210600Z 13010KT 9999 FEW025 SCT070 25/19 Q1015

Localidade: SBPL
PETROLINA - BRAZIL (PE)
Latitude: 09°21'54"S - Longitude: 040°33'59"W.
Declinação magnética: 22,59°W
Amanhecer: 08:16 UTC
Por do sol: 20:38 UTC
Boletim do: 21, as 06:00 UTC
sábado 21 outubro 2017 06:00 horário de Greenwich (Zulu).
Vento: direção = 130 graus, velocidade: 10 nôs (19 km/h) (5 m/s).
Pista 13, comprimento 9843 pés, altitude 1249 pés: Vento ao través 4 KT dereita - Vento eixo pista 9 KT frontal.
Pista 31, comprimento 9843 pés, altitude 1259 pés: Vento ao través 4 KT esquerda - Vento eixo pista 9 KT de cauda.
Visibilidade horizontal minima: 10 km ou mais.
Nuvens: Pouco nublado (1-2 oitavos), a 2500 pés acima do Aeródromo (762 metros).
Nuvens: Parcialmente nublado (3-4 oitavos), a 7000 pés acima do Aeródromo (2134 metros).
Temperatura: 25 graus Celsius (77 Fahrenheit). Ponto de orvalho: 19 graus Celsius (66 Fahrenheit). Umidade relativa 69,4 %.
QNH (pressão ao nível do mar): 1015 hPa (29,97 polegadas).
0:41
Confiabilidade do Metar - Tempo de emissão em horas e minutos
NOAA
Visual Flight Rules
10 KT
Vento
25/19
Temperatura / Ponto de orvalho
>10Km
Visibilidade horizontal minima
2500
Pouco nublado (1-2 oitavos)
7000
Parcialmente nublado (3-4 oitavos)
1015
Pressão ao nível do mar
22,59°W
Declinação magnética
08:16 Z
Amanhecer
20:38 Z
Por do sol
Mapa
Ver no Google Maps